LFLW 181530Z AUTO 29011KT 260V330 9999 BKN034/// BKN040/// BKN050/// ///CB 21/13 Q1016 TEMPO TSRA

ElémentsDécodage
LFLW Station météo située sur l'aérodrome de AURILLAC
181530Z émis le 18 du mois à 15h30 UTC
AUTO Bulletin édité par un automate
29011KT vent du 290°, 11 noeuds
260V330 vent de direction variable entre 260° et 330°
9999 visibilité horizontale supérieure à 10 Km
BKN034/// nuages morcelés (5/8 à 7/8) à 3400 pieds
 type de nuage non observable
BKN040/// nuages morcelés (5/8 à 7/8) à 4000 pieds
 type de nuage non observable
BKN050/// nuages morcelés (5/8 à 7/8) à 5000 pieds
 type de nuage non observable
///CB élement non décodé
21/13 température 21°C, point de rosée 13°C
 soit une humidité relative de 60%
Q1016 la pression au niveau de la mer (QNH) est de 1016 hPa
TEMPO fluctuation temporaire prévue
TSRA pluie d'orage